Webb, Mississippi
Current Conditions -  °F | °C
As of 4:35 AM on Friday 24 Oct 2014 (Local Time) from KCKM Reporting Station
Clear Clear  
Wind Chill: 46°   Ceiling: Unl
Heat Index: 46°   Visibility: 2.5mi
Dew Point: 46°   Wind: 0mph
Humidity: 100%   Direction: NA
Pressure: 30.14"   Gusts: NA
Location:  33.95°N, 90.34°W
Report Text: KCKM 240935Z AUTO 00000KT 2 1/2SM CLR 08/08 A3014 RMK AO1
Loading
Personal Weather Stations






























Interactive Weather Map
Tropical Storm Tracking
New forecast layout! Learn more

10-Day Weather Forecast

Advertisements
Track Severe Weather on mobile